Time;durP1;ratioP1;P1;durP2;ratioP2;P2;SDS_P1;SDS_P2;PMS_P1;PMS_P2;Temp;Humidity;BMP_temperature;BMP_pressure;BME280_temperature;BME280_humidity;BME280_pressure;Samples;Min_cycle;Max_cycle;Signal;HPM_P1;HPM_P2
2021/12/15 00:03:10;;;;;;;8.10;4.27;;;12.80;63.90;;;;;;20848053;28;20034;-78
2021/12/15 00:13:12;;;;;;;5.88;3.92;;;12.80;63.90;;;;;;20813537;28;20375;-78
2021/12/15 00:23:13;;;;;;;5.05;3.17;;;12.80;63.90;;;;;;20830474;28;20637;-78
2021/12/15 00:33:13;;;;;;;6.43;3.75;;;12.80;64.00;;;;;;20828732;28;20041;-79
2021/12/15 00:43:14;;;;;;;4.68;3.53;;;12.80;64.10;;;;;;20812806;28;20115;-78
2021/12/15 00:53:16;;;;;;;8.30;4.35;;;12.80;64.10;;;;;;20811385;28;20040;-79
2021/12/15 01:03:17;;;;;;;4.70;3.50;;;12.80;64.20;;;;;;20835015;28;20057;-79
2021/12/15 01:23:40;;;;;;;5.30;3.40;;;12.80;64.20;;;;;;20844153;28;20383;-79
2021/12/15 01:33:41;;;;;;;5.22;3.60;;;12.70;64.30;;;;;;20842164;28;20048;-77
2021/12/15 01:46:53;;;;;;;4.70;3.40;;;12.70;64.30;;;;;;20842334;28;20033;-79
2021/12/15 01:54:11;;;;;;;5.70;3.13;;;12.70;64.40;;;;;;20855464;28;20045;-76
2021/12/15 02:04:13;;;;;;;5.70;3.45;;;12.80;64.50;;;;;;20840769;28;20148;-76
2021/12/15 02:14:14;;;;;;;5.45;3.70;;;12.70;64.40;;;;;;20855510;28;20438;-76
2021/12/15 02:24:14;;;;;;;5.35;2.90;;;12.70;64.60;;;;;;20839712;28;20037;-76
2021/12/15 02:44:24;;;;;;;4.68;3.22;;;12.70;64.70;;;;;;20853370;28;20052;-76
2021/12/15 02:54:25;;;;;;;3.63;2.55;;;12.70;64.80;;;;;;20836803;28;20061;-77
2021/12/15 03:25:01;;;;;;;4.97;2.83;;;12.70;64.70;;;;;;20835059;28;20380;-76
2021/12/15 03:45:10;;;;;;;4.65;2.60;;;12.70;64.70;;;;;;20848105;28;20300;-79
2021/12/15 03:55:12;;;;;;;3.65;2.03;;;12.70;64.80;;;;;;20815616;28;20033;-77
2021/12/15 04:05:15;;;;;;;2.90;1.98;;;12.70;64.80;;;;;;20830760;28;20124;-77
2021/12/15 04:25:28;;;;;;;3.90;2.28;;;12.70;64.90;;;;;;20830930;28;20067;-77
2021/12/15 04:35:29;;;;;;;2.63;2.00;;;12.70;64.90;;;;;;20829297;28;20065;-77
2021/12/15 04:45:30;;;;;;;2.95;2.08;;;12.60;64.90;;;;;;20829071;28;20041;-77
2021/12/15 04:55:33;;;;;;;3.45;1.80;;;12.60;64.90;;;;;;20830119;28;20094;-77
2021/12/15 05:05:35;;;;;;;2.45;1.65;;;12.60;64.90;;;;;;20828270;28;20037;-77
2021/12/15 05:15:35;;;;;;;2.85;1.67;;;12.70;64.80;;;;;;20839839;28;20080;-73
2021/12/15 05:25:36;;;;;;;2.53;2.03;;;13.20;63.70;;;;;;20820658;28;20041;-74
2021/12/15 05:35:37;;;;;;;3.33;2.38;;;13.90;61.90;;;;;;20824862;28;20281;-77
2021/12/15 05:45:40;;;;;;;2.63;1.75;;;14.60;60.00;;;;;;20817923;28;20391;-76
2021/12/15 05:55:40;;;;;;;3.42;1.83;;;15.10;58.40;;;;;;20817685;28;20080;-77
2021/12/15 06:05:41;;;;;;;2.90;1.98;;;15.40;57.40;;;;;;20817545;28;20407;-77
2021/12/15 06:15:43;;;;;;;2.55;1.75;;;15.40;56.90;;;;;;20777423;28;20044;-80
2021/12/15 06:25:44;;;;;;;2.42;1.60;;;15.30;57.00;;;;;;20831904;28;20037;-77
2021/12/15 06:35:53;;;;;;;4.07;2.38;;;14.70;57.90;;;;;;20812000;28;20037;-78
2021/12/15 06:46:49;;;;;;;2.97;2.20;;;14.20;59.10;;;;;;20822983;28;20484;-78
2021/12/15 07:06:38;;;;;;;3.30;2.17;;;13.50;61.20;;;;;;20814657;28;20104;-79
2021/12/15 07:16:42;;;;;;;3.15;1.83;;;13.20;62.00;;;;;;20824818;28;20460;-79
2021/12/15 07:26:43;;;;;;;2.85;1.70;;;13.10;62.70;;;;;;20741941;28;20103;-79
2021/12/15 07:36:43;;;;;;;3.20;2.03;;;12.90;63.30;;;;;;20743492;28;20485;-80
2021/12/15 07:46:44;;;;;;;3.30;1.95;;;12.80;63.70;;;;;;20759272;28;20128;-75
2021/12/15 07:56:46;;;;;;;3.45;2.20;;;12.80;63.90;;;;;;20758227;28;20025;-74
2021/12/15 08:06:47;;;;;;;4.00;2.50;;;12.80;64.20;;;;;;20804574;28;20037;-74
2021/12/15 08:16:50;;;;;;;4.57;2.30;;;12.80;64.30;;;;;;20775089;28;20037;-76
2021/12/15 08:26:50;;;;;;;4.55;2.42;;;12.80;64.40;;;;;;20740336;28;20038;-81
2021/12/15 08:36:52;;;;;;;6.03;3.60;;;12.90;64.60;;;;;;20821160;28;20029;-78
2021/12/15 08:46:53;;;;;;;3.53;2.10;;;12.80;64.60;;;;;;20806251;28;20041;-77
2021/12/15 08:56:55;;;;;;;4.65;2.67;;;12.80;64.70;;;;;;20768706;28;20112;-75
2021/12/15 09:06:57;;;;;;;5.03;2.88;;;12.80;64.80;;;;;;20767856;28;20060;-74
2021/12/15 09:17:02;;;;;;;4.45;2.92;;;12.80;64.90;;;;;;20805057;28;20034;-76
2021/12/15 09:27:03;;;;;;;5.18;2.88;;;12.80;65.00;;;;;;20806937;28;20054;-77
2021/12/15 09:37:04;;;;;;;5.88;3.63;;;12.80;65.20;;;;;;20755363;28;20141;-77
2021/12/15 09:57:36;;;;;;;7.90;3.67;;;12.80;66.00;;;;;;20736568;28;20165;-74
2021/12/15 10:18:05;;;;;;;5.95;3.50;;;12.70;65.30;;;;;;20817887;28;20120;-74
2021/12/15 10:28:07;;;;;;;3.83;2.65;;;12.80;65.50;;;;;;20817013;28;20124;-73
2021/12/15 10:38:15;;;;;;;8.68;4.22;;;12.80;65.50;;;;;;20808532;28;20033;-77
2021/12/15 10:48:25;;;;;;;8.38;3.95;;;12.70;65.70;;;;;;20833367;28;20132;-75
2021/12/15 10:58:38;;;;;;;7.70;4.20;;;12.70;65.70;;;;;;20832455;28;20069;-80
2021/12/15 11:08:38;;;;;;;4.13;2.90;;;12.70;65.70;;;;;;20817761;28;20045;-75
2021/12/15 11:18:39;;;;;;;5.78;3.40;;;12.90;65.50;;;;;;21203595;22;20075;-76
2021/12/15 11:28:41;;;;;;;6.13;3.80;;;13.50;64.00;;;;;;20857623;28;20034;-77
2021/12/15 11:38:47;;;;;;;6.03;3.25;;;14.10;62.10;;;;;;20838396;28;20407;-78
2021/12/15 11:49:03;;;;;;;4.65;2.97;;;14.70;60.40;;;;;;20824495;28;20037;-77
2021/12/15 11:59:23;;;;;;;4.77;3.37;;;15.20;58.90;;;;;;20878592;28;20703;-78
2021/12/15 12:09:24;;;;;;;4.50;2.63;;;15.40;58.10;;;;;;20823275;28;20560;-76
2021/12/15 12:19:25;;;;;;;3.72;2.28;;;15.40;57.90;;;;;;20857287;28;20239;-77
2021/12/15 12:29:26;;;;;;;6.35;3.35;;;15.00;58.40;;;;;;20885873;28;20048;-78
2021/12/15 12:39:31;;;;;;;5.55;2.97;;;14.50;59.50;;;;;;20859026;28;20037;-76
2021/12/15 12:59:47;;;;;;;3.60;2.65;;;13.70;61.70;;;;;;20833944;28;20040;-77
2021/12/15 13:09:50;;;;;;;4.35;2.47;;;13.50;62.60;;;;;;20821603;28;20387;-81
2021/12/15 13:19:51;;;;;;;4.18;2.30;;;13.20;63.30;;;;;;20837785;28;20046;-76
2021/12/15 13:29:52;;;;;;;3.28;2.08;;;13.10;64.10;;;;;;20853280;28;20092;-80
2021/12/15 13:39:53;;;;;;;3.20;2.30;;;13.10;64.60;;;;;;20837995;28;20112;-81
2021/12/15 13:50:15;;;;;;;4.97;2.67;;;13.00;65.30;;;;;;20820269;28;20037;-82
2021/12/15 14:00:29;;;;;;;4.20;2.47;;;13.00;64.80;;;;;;20816469;28;20037;-78
2021/12/15 14:10:29;;;;;;;4.90;2.25;;;13.00;64.90;;;;;;20893606;28;20471;-82
2021/12/15 14:20:32;;;;;;;4.25;2.28;;;13.10;64.90;;;;;;20846635;28;20041;-75
2021/12/15 14:30:33;;;;;;;3.03;2.03;;;13.10;64.80;;;;;;20832471;28;20124;-81
2021/12/15 14:40:35;;;;;;;3.75;2.55;;;13.10;64.80;;;;;;20830690;28;20022;-81
2021/12/15 14:50:35;;;;;;;3.38;2.30;;;13.10;65.00;;;;;;20818372;28;20169;-81
2021/12/15 15:00:40;;;;;;;5.00;2.75;;;13.10;65.20;;;;;;20851869;28;20041;-84
2021/12/15 15:10:43;;;;;;;3.95;2.35;;;13.00;65.30;;;;;;20908348;28;20049;-83
2021/12/15 15:20:49;;;;;;;3.75;2.22;;;13.00;65.50;;;;;;20881410;28;20053;-78
2021/12/15 15:30:50;;;;;;;4.57;2.77;;;12.90;65.70;;;;;;20908587;28;20033;-80
2021/12/15 15:40:58;;;;;;;4.03;2.58;;;12.90;65.90;;;;;;20891338;28;20395;-79
2021/12/15 15:51:01;;;;;;;3.80;2.17;;;13.10;65.70;;;;;;20891114;28;20033;-79
2021/12/15 16:01:08;;;;;;;3.17;1.98;;;13.60;64.30;;;;;;20886872;28;20079;-85
2021/12/15 16:11:20;;;;;;;3.75;2.60;;;14.20;62.70;;;;;;20909467;28;20465;-85
2021/12/15 16:31:48;;;;;;;3.05;2.22;;;15.20;60.10;;;;;;20887330;28;20068;-77
2021/12/15 16:41:51;;;;;;;4.38;2.53;;;15.20;59.40;;;;;;20807420;28;20056;-77
2021/12/15 16:52:12;;;;;;;4.10;2.75;;;15.20;59.20;;;;;;20806884;28;20045;-79
2021/12/15 17:02:23;;;;;;;7.00;3.78;;;14.80;60.00;;;;;;20838606;28;20656;-78
2021/12/15 17:12:29;;;;;;;6.03;3.50;;;14.30;61.00;;;;;;20838475;28;20084;-79
2021/12/15 17:22:39;;;;;;;6.28;3.17;;;14.00;62.00;;;;;;20822145;28;20674;-79
2021/12/15 17:32:40;;;;;;;8.50;5.05;;;13.70;63.00;;;;;;20804612;28;20046;-79
2021/12/15 17:42:41;;;;;;;6.88;3.13;;;13.40;63.80;;;;;;20839013;28;20083;-84
2021/12/15 17:52:45;;;;;;;6.27;3.23;;;13.20;64.70;;;;;;20802648;28;20045;-79
2021/12/15 18:02:46;;;;;;;6.15;3.47;;;13.00;65.10;;;;;;20834610;28;20323;-77
2021/12/15 18:12:46;;;;;;;7.10;3.30;;;13.00;65.70;;;;;;20819864;28;20045;-74
2021/12/15 18:22:47;;;;;;;6.38;3.85;;;12.80;66.00;;;;;;20919066;28;20049;-79
2021/12/15 18:32:48;;;;;;;5.80;3.63;;;12.80;66.30;;;;;;20895099;28;20044;-75
2021/12/15 18:42:49;;;;;;;7.28;4.72;;;12.80;66.40;;;;;;20889846;28;20110;-76
2021/12/15 18:52:50;;;;;;;6.50;4.00;;;12.80;66.50;;;;;;20891715;28;20482;-75
2021/12/15 19:02:52;;;;;;;5.97;3.70;;;12.70;66.40;;;;;;20896199;28;20071;-75
2021/12/15 19:12:56;;;;;;;6.00;3.95;;;12.80;66.50;;;;;;20854344;28;20052;-75
2021/12/15 19:23:00;;;;;;;6.50;4.05;;;12.80;66.40;;;;;;20872660;28;20128;-76
2021/12/15 19:33:03;;;;;;;5.97;4.15;;;12.80;66.30;;;;;;20873308;28;20044;-75
2021/12/15 19:43:04;;;;;;;7.35;4.72;;;12.80;66.30;;;;;;20855267;28;20049;-74
2021/12/15 19:53:05;;;;;;;5.72;3.72;;;12.90;66.30;;;;;;20848753;28;20036;-75
2021/12/15 20:03:05;;;;;;;7.25;4.75;;;12.80;66.30;;;;;;20832215;28;20039;-75
2021/12/15 20:13:06;;;;;;;7.38;4.40;;;12.80;66.30;;;;;;20844482;28;20388;-75
2021/12/15 20:23:09;;;;;;;6.57;4.57;;;12.80;66.40;;;;;;20862856;28;20119;-76
2021/12/15 20:33:11;;;;;;;6.72;4.45;;;12.80;66.40;;;;;;20858789;28;20044;-75
2021/12/15 20:43:13;;;;;;;8.30;4.97;;;12.80;66.50;;;;;;20843995;28;20132;-75
2021/12/15 20:53:17;;;;;;;7.88;4.60;;;12.80;66.50;;;;;;20843088;28;20060;-75
2021/12/15 21:03:19;;;;;;;8.45;5.07;;;12.80;66.50;;;;;;20845894;28;20475;-75
2021/12/15 21:13:20;;;;;;;8.77;5.55;;;12.80;67.20;;;;;;20832867;28;20479;-75
2021/12/15 21:23:20;;;;;;;9.10;5.28;;;12.70;66.60;;;;;;20915977;28;20045;-77
2021/12/15 21:33:21;;;;;;;10.20;5.50;;;12.70;66.70;;;;;;20902218;28;20113;-75
2021/12/15 21:43:22;;;;;;;9.02;5.63;;;12.70;66.70;;;;;;20918245;28;20059;-76
2021/12/15 21:53:22;;;;;;;8.63;5.20;;;12.70;66.80;;;;;;20901025;28;20443;-75
2021/12/15 22:03:26;;;;;;;7.40;4.68;;;12.70;66.90;;;;;;20916691;28;20287;-76
2021/12/15 22:13:27;;;;;;;8.63;4.90;;;12.70;66.90;;;;;;20915813;28;20041;-75
2021/12/15 22:23:28;;;;;;;11.95;5.00;;;12.70;66.90;;;;;;20898370;28;20056;-76
2021/12/15 22:33:29;;;;;;;9.13;5.20;;;12.70;66.90;;;;;;20895804;28;20374;-76
2021/12/15 22:43:30;;;;;;;8.65;4.97;;;12.60;66.80;;;;;;20878699;28;20040;-76
2021/12/15 22:53:31;;;;;;;7.60;4.70;;;12.60;66.80;;;;;;20912844;28;20383;-75
2021/12/15 23:03:33;;;;;;;7.97;4.25;;;12.60;66.80;;;;;;20895350;28;20083;-76
2021/12/15 23:13:36;;;;;;;8.13;4.22;;;12.60;66.70;;;;;;20911535;28;20048;-76
2021/12/15 23:23:37;;;;;;;8.93;4.05;;;12.60;66.70;;;;;;20910310;28;20037;-75
2021/12/15 23:33:38;;;;;;;6.53;3.88;;;12.60;66.70;;;;;;20909657;28;20036;-77
2021/12/15 23:44:02;;;;;;;6.60;3.83;;;12.60;66.70;;;;;;20892446;28;20060;-75
